sensor_id;sensor_type;location;lat;lon;timestamp;P1;durP1;ratioP1;P2;durP2;ratioP2
68655;SDS011;55638;51.122;13.606;2023-05-07T00:00:55;9.90;;;7.10;;
68655;SDS011;55638;51.122;13.606;2023-05-07T00:02:27;9.32;;;7.60;;
68655;SDS011;55638;51.122;13.606;2023-05-07T00:03:59;10.40;;;7.72;;
68655;SDS011;55638;51.122;13.606;2023-05-07T00:05:31;9.40;;;7.07;;
68655;SDS011;55638;51.122;13.606;2023-05-07T00:07:03;8.40;;;7.07;;
68655;SDS011;55638;51.122;13.606;2023-05-07T00:08:35;9.40;;;7.53;;
68655;SDS011;55638;51.122;13.606;2023-05-07T00:10:07;9.13;;;6.82;;
68655;SDS011;55638;51.122;13.606;2023-05-07T00:11:40;10.35;;;7.30;;
68655;SDS011;55638;51.122;13.606;2023-05-07T00:13:12;10.70;;;8.63;;
68655;SDS011;55638;51.122;13.606;2023-05-07T00:14:44;10.50;;;7.57;;
68655;SDS011;55638;51.122;13.606;2023-05-07T00:16:16;10.57;;;7.78;;
68655;SDS011;55638;51.122;13.606;2023-05-07T00:17:48;9.43;;;7.45;;
68655;SDS011;55638;51.122;13.606;2023-05-07T00:19:20;10.32;;;7.55;;
68655;SDS011;55638;51.122;13.606;2023-05-07T00:20:52;11.27;;;8.43;;
68655;SDS011;55638;51.122;13.606;2023-05-07T00:22:24;11.20;;;8.05;;
68655;SDS011;55638;51.122;13.606;2023-05-07T00:23:56;11.07;;;7.85;;
68655;SDS011;55638;51.122;13.606;2023-05-07T00:25:28;11.75;;;8.50;;
68655;SDS011;55638;51.122;13.606;2023-05-07T00:27:00;11.48;;;8.57;;
68655;SDS011;55638;51.122;13.606;2023-05-07T00:28:31;13.27;;;9.60;;
68655;SDS011;55638;51.122;13.606;2023-05-07T00:30:04;14.27;;;9.30;;
68655;SDS011;55638;51.122;13.606;2023-05-07T00:31:38;12.25;;;8.88;;
68655;SDS011;55638;51.122;13.606;2023-05-07T00:33:10;10.95;;;8.02;;
68655;SDS011;55638;51.122;13.606;2023-05-07T00:34:42;12.38;;;8.38;;
68655;SDS011;55638;51.122;13.606;2023-05-07T00:36:14;11.38;;;8.93;;
68655;SDS011;55638;51.122;13.606;2023-05-07T00:37:46;12.30;;;8.98;;
68655;SDS011;55638;51.122;13.606;2023-05-07T00:39:19;13.38;;;9.15;;
68655;SDS011;55638;51.122;13.606;2023-05-07T00:40:52;10.50;;;8.57;;
68655;SDS011;55638;51.122;13.606;2023-05-07T00:42:24;12.80;;;10.00;;
68655;SDS011;55638;51.122;13.606;2023-05-07T00:43:56;11.15;;;8.90;;
68655;SDS011;55638;51.122;13.606;2023-05-07T00:45:28;11.98;;;8.88;;
68655;SDS011;55638;51.122;13.606;2023-05-07T00:47:01;10.88;;;8.65;;
68655;SDS011;55638;51.122;13.606;2023-05-07T00:48:34;10.85;;;8.65;;
68655;SDS011;55638;51.122;13.606;2023-05-07T00:50:06;14.00;;;9.25;;
68655;SDS011;55638;51.122;13.606;2023-05-07T00:51:40;10.68;;;8.70;;
68655;SDS011;55638;51.122;13.606;2023-05-07T00:53:12;11.77;;;8.68;;
68655;SDS011;55638;51.122;13.606;2023-05-07T00:54:44;10.70;;;8.43;;
68655;SDS011;55638;51.122;13.606;2023-05-07T00:56:16;11.70;;;8.63;;
68655;SDS011;55638;51.122;13.606;2023-05-07T00:57:48;11.30;;;9.75;;
68655;SDS011;55638;51.122;13.606;2023-05-07T00:59:22;11.55;;;8.88;;
68655;SDS011;55638;51.122;13.606;2023-05-07T01:00:53;10.43;;;8.77;;
68655;SDS011;55638;51.122;13.606;2023-05-07T01:02:26;11.32;;;8.52;;
68655;SDS011;55638;51.122;13.606;2023-05-07T01:03:58;10.52;;;8.25;;
68655;SDS011;55638;51.122;13.606;2023-05-07T01:05:30;10.88;;;9.05;;
68655;SDS011;55638;51.122;13.606;2023-05-07T01:07:03;10.32;;;8.27;;
68655;SDS011;55638;51.122;13.606;2023-05-07T01:08:35;12.50;;;8.82;;
68655;SDS011;55638;51.122;13.606;2023-05-07T01:10:08;10.68;;;8.55;;
68655;SDS011;55638;51.122;13.606;2023-05-07T01:11:42;11.38;;;9.13;;
68655;SDS011;55638;51.122;13.606;2023-05-07T01:13:15;11.48;;;8.68;;
68655;SDS011;55638;51.122;13.606;2023-05-07T01:14:47;9.98;;;8.25;;
68655;SDS011;55638;51.122;13.606;2023-05-07T01:16:21;10.13;;;7.93;;
68655;SDS011;55638;51.122;13.606;2023-05-07T01:17:53;9.85;;;7.75;;
68655;SDS011;55638;51.122;13.606;2023-05-07T01:19:34;9.35;;;7.78;;
68655;SDS011;55638;51.122;13.606;2023-05-07T01:21:06;11.07;;;8.40;;
68655;SDS011;55638;51.122;13.606;2023-05-07T01:22:42;11.23;;;8.70;;
68655;SDS011;55638;51.122;13.606;2023-05-07T01:24:15;10.52;;;8.18;;
68655;SDS011;55638;51.122;13.606;2023-05-07T01:25:54;9.30;;;7.70;;
68655;SDS011;55638;51.122;13.606;2023-05-07T01:27:28;9.75;;;7.65;;
68655;SDS011;55638;51.122;13.606;2023-05-07T01:29:01;8.73;;;7.68;;
68655;SDS011;55638;51.122;13.606;2023-05-07T01:30:33;8.57;;;7.43;;
68655;SDS011;55638;51.122;13.606;2023-05-07T01:32:10;8.07;;;7.22;;
68655;SDS011;55638;51.122;13.606;2023-05-07T01:33:44;10.18;;;8.82;;
68655;SDS011;55638;51.122;13.606;2023-05-07T01:35:22;8.18;;;7.22;;
68655;SDS011;55638;51.122;13.606;2023-05-07T01:36:58;8.82;;;7.07;;
68655;SDS011;55638;51.122;13.606;2023-05-07T01:38:31;9.45;;;7.50;;
68655;SDS011;55638;51.122;13.606;2023-05-07T01:40:03;9.50;;;7.45;;
68655;SDS011;55638;51.122;13.606;2023-05-07T01:41:36;10.63;;;7.85;;
68655;SDS011;55638;51.122;13.606;2023-05-07T01:43:08;9.52;;;8.00;;
68655;SDS011;55638;51.122;13.606;2023-05-07T01:44:41;8.55;;;7.65;;
68655;SDS011;55638;51.122;13.606;2023-05-07T01:46:13;9.43;;;7.60;;
68655;SDS011;55638;51.122;13.606;2023-05-07T01:47:46;9.30;;;7.28;;
68655;SDS011;55638;51.122;13.606;2023-05-07T01:49:19;8.05;;;7.15;;
68655;SDS011;55638;51.122;13.606;2023-05-07T01:50:51;8.88;;;7.43;;
68655;SDS011;55638;51.122;13.606;2023-05-07T01:52:23;11.68;;;7.03;;
68655;SDS011;55638;51.122;13.606;2023-05-07T01:53:57;7.53;;;6.47;;
68655;SDS011;55638;51.122;13.606;2023-05-07T01:55:29;7.80;;;7.00;;
68655;SDS011;55638;51.122;13.606;2023-05-07T01:57:02;7.25;;;6.55;;
68655;SDS011;55638;51.122;13.606;2023-05-07T01:58:34;8.52;;;7.20;;
68655;SDS011;55638;51.122;13.606;2023-05-07T02:00:07;8.93;;;6.93;;
68655;SDS011;55638;51.122;13.606;2023-05-07T02:01:47;8.02;;;6.47;;
68655;SDS011;55638;51.122;13.606;2023-05-07T02:03:19;8.30;;;6.90;;
68655;SDS011;55638;51.122;13.606;2023-05-07T02:05:00;9.38;;;6.75;;
68655;SDS011;55638;51.122;13.606;2023-05-07T02:06:33;8.45;;;7.07;;
68655;SDS011;55638;51.122;13.606;2023-05-07T02:08:08;9.00;;;6.95;;
68655;SDS011;55638;51.122;13.606;2023-05-07T02:09:40;7.78;;;6.88;;
68655;SDS011;55638;51.122;13.606;2023-05-07T02:11:12;10.13;;;8.20;;
68655;SDS011;55638;51.122;13.606;2023-05-07T02:12:45;9.95;;;7.60;;
68655;SDS011;55638;51.122;13.606;2023-05-07T02:14:17;8.07;;;7.20;;
68655;SDS011;55638;51.122;13.606;2023-05-07T02:15:48;8.82;;;7.43;;
68655;SDS011;55638;51.122;13.606;2023-05-07T02:17:22;9.52;;;7.82;;
68655;SDS011;55638;51.122;13.606;2023-05-07T02:18:54;8.77;;;7.18;;
68655;SDS011;55638;51.122;13.606;2023-05-07T02:20:26;8.68;;;7.15;;
68655;SDS011;55638;51.122;13.606;2023-05-07T02:21:58;8.20;;;7.03;;
68655;SDS011;55638;51.122;13.606;2023-05-07T02:23:34;8.75;;;7.25;;
68655;SDS011;55638;51.122;13.606;2023-05-07T02:25:06;8.82;;;7.20;;
68655;SDS011;55638;51.122;13.606;2023-05-07T02:26:39;8.77;;;7.07;;
68655;SDS011;55638;51.122;13.606;2023-05-07T02:28:12;10.80;;;7.45;;
68655;SDS011;55638;51.122;13.606;2023-05-07T02:29:57;9.88;;;7.25;;
68655;SDS011;55638;51.122;13.606;2023-05-07T02:31:29;8.52;;;7.28;;
68655;SDS011;55638;51.122;13.606;2023-05-07T02:33:01;9.40;;;7.35;;
68655;SDS011;55638;51.122;13.606;2023-05-07T02:34:33;9.60;;;7.43;;
68655;SDS011;55638;51.122;13.606;2023-05-07T02:36:08;10.68;;;7.63;;
68655;SDS011;55638;51.122;13.606;2023-05-07T02:37:59;9.68;;;7.72;;
68655;SDS011;55638;51.122;13.606;2023-05-07T02:39:31;9.23;;;7.38;;
68655;SDS011;55638;51.122;13.606;2023-05-07T02:41:03;8.32;;;7.13;;
68655;SDS011;55638;51.122;13.606;2023-05-07T02:42:35;10.60;;;7.95;;
68655;SDS011;55638;51.122;13.606;2023-05-07T02:44:07;8.02;;;7.03;;
68655;SDS011;55638;51.122;13.606;2023-05-07T02:45:39;8.48;;;7.00;;
68655;SDS011;55638;51.122;13.606;2023-05-07T02:47:13;8.35;;;7.40;;
68655;SDS011;55638;51.122;13.606;2023-05-07T02:48:47;9.15;;;6.95;;
68655;SDS011;55638;51.122;13.606;2023-05-07T02:50:18;8.90;;;7.18;;
68655;SDS011;55638;51.122;13.606;2023-05-07T02:51:50;8.88;;;7.10;;
68655;SDS011;55638;51.122;13.606;2023-05-07T02:53:26;8.40;;;7.05;;
68655;SDS011;55638;51.122;13.606;2023-05-07T02:54:58;8.63;;;7.50;;
68655;SDS011;55638;51.122;13.606;2023-05-07T02:56:30;8.68;;;7.32;;
68655;SDS011;55638;51.122;13.606;2023-05-07T02:58:02;10.45;;;7.68;;
68655;SDS011;55638;51.122;13.606;2023-05-07T02:59:37;9.85;;;8.05;;
68655;SDS011;55638;51.122;13.606;2023-05-07T03:01:09;10.30;;;8.02;;
68655;SDS011;55638;51.122;13.606;2023-05-07T03:03:01;11.68;;;8.00;;
68655;SDS011;55638;51.122;13.606;2023-05-07T03:04:33;8.82;;;7.45;;
68655;SDS011;55638;51.122;13.606;2023-05-07T03:06:05;10.57;;;8.00;;
68655;SDS011;55638;51.122;13.606;2023-05-07T03:07:38;11.15;;;8.05;;
68655;SDS011;55638;51.122;13.606;2023-05-07T03:09:09;10.68;;;8.63;;
68655;SDS011;55638;51.122;13.606;2023-05-07T03:10:42;11.05;;;8.40;;
68655;SDS011;55638;51.122;13.606;2023-05-07T03:12:14;12.82;;;8.65;;
68655;SDS011;55638;51.122;13.606;2023-05-07T03:13:46;12.98;;;9.10;;
68655;SDS011;55638;51.122;13.606;2023-05-07T03:15:18;13.70;;;9.98;;
68655;SDS011;55638;51.122;13.606;2023-05-07T03:16:50;11.27;;;8.77;;
68655;SDS011;55638;51.122;13.606;2023-05-07T03:18:22;10.25;;;8.55;;
68655;SDS011;55638;51.122;13.606;2023-05-07T03:19:54;10.43;;;7.82;;
68655;SDS011;55638;51.122;13.606;2023-05-07T03:21:26;10.15;;;7.72;;
68655;SDS011;55638;51.122;13.606;2023-05-07T03:22:58;10.60;;;8.80;;
68655;SDS011;55638;51.122;13.606;2023-05-07T03:24:30;10.07;;;8.00;;
68655;SDS011;55638;51.122;13.606;2023-05-07T03:26:02;10.02;;;7.57;;
68655;SDS011;55638;51.122;13.606;2023-05-07T03:27:34;9.30;;;7.65;;
68655;SDS011;55638;51.122;13.606;2023-05-07T03:29:06;11.13;;;8.20;;
68655;SDS011;55638;51.122;13.606;2023-05-07T03:30:38;11.05;;;8.40;;
68655;SDS011;55638;51.122;13.606;2023-05-07T03:32:10;11.75;;;8.68;;
68655;SDS011;55638;51.122;13.606;2023-05-07T03:33:55;13.73;;;9.98;;
68655;SDS011;55638;51.122;13.606;2023-05-07T03:35:28;10.98;;;8.80;;
68655;SDS011;55638;51.122;13.606;2023-05-07T03:37:00;11.45;;;9.20;;
68655;SDS011;55638;51.122;13.606;2023-05-07T03:38:32;12.15;;;10.15;;
68655;SDS011;55638;51.122;13.606;2023-05-07T03:40:04;10.88;;;8.82;;
68655;SDS011;55638;51.122;13.606;2023-05-07T03:41:45;11.23;;;8.77;;
68655;SDS011;55638;51.122;13.606;2023-05-07T03:43:17;11.40;;;8.65;;
68655;SDS011;55638;51.122;13.606;2023-05-07T03:44:54;11.10;;;8.05;;
68655;SDS011;55638;51.122;13.606;2023-05-07T03:46:25;10.93;;;8.27;;
68655;SDS011;55638;51.122;13.606;2023-05-07T03:47:58;10.35;;;8.45;;
68655;SDS011;55638;51.122;13.606;2023-05-07T03:49:30;11.55;;;8.20;;
68655;SDS011;55638;51.122;13.606;2023-05-07T03:51:02;12.15;;;8.70;;
68655;SDS011;55638;51.122;13.606;2023-05-07T03:52:36;10.88;;;8.70;;
68655;SDS011;55638;51.122;13.606;2023-05-07T03:54:10;10.00;;;7.70;;
68655;SDS011;55638;51.122;13.606;2023-05-07T03:55:46;10.95;;;7.93;;
68655;SDS011;55638;51.122;13.606;2023-05-07T03:57:18;10.20;;;7.35;;
68655;SDS011;55638;51.122;13.606;2023-05-07T03:58:50;10.30;;;7.57;;
68655;SDS011;55638;51.122;13.606;2023-05-07T04:00:23;10.75;;;8.07;;
68655;SDS011;55638;51.122;13.606;2023-05-07T04:01:55;12.63;;;8.77;;
68655;SDS011;55638;51.122;13.606;2023-05-07T04:03:28;10.45;;;7.82;;
68655;SDS011;55638;51.122;13.606;2023-05-07T04:05:03;10.65;;;7.40;;
68655;SDS011;55638;51.122;13.606;2023-05-07T04:06:35;11.27;;;8.55;;
68655;SDS011;55638;51.122;13.606;2023-05-07T04:08:07;10.82;;;8.35;;
68655;SDS011;55638;51.122;13.606;2023-05-07T04:09:43;10.55;;;8.48;;
68655;SDS011;55638;51.122;13.606;2023-05-07T04:11:15;12.75;;;9.63;;
68655;SDS011;55638;51.122;13.606;2023-05-07T04:12:47;12.13;;;8.73;;
68655;SDS011;55638;51.122;13.606;2023-05-07T04:14:23;11.85;;;9.13;;
68655;SDS011;55638;51.122;13.606;2023-05-07T04:15:56;12.32;;;8.70;;
68655;SDS011;55638;51.122;13.606;2023-05-07T04:17:28;12.82;;;10.10;;
68655;SDS011;55638;51.122;13.606;2023-05-07T04:19:00;11.23;;;8.68;;
68655;SDS011;55638;51.122;13.606;2023-05-07T04:20:33;12.00;;;8.32;;
68655;SDS011;55638;51.122;13.606;2023-05-07T04:22:10;13.82;;;9.35;;
68655;SDS011;55638;51.122;13.606;2023-05-07T04:23:43;12.73;;;9.55;;
68655;SDS011;55638;51.122;13.606;2023-05-07T04:25:17;14.85;;;9.30;;
68655;SDS011;55638;51.122;13.606;2023-05-07T04:26:49;11.88;;;9.07;;
68655;SDS011;55638;51.122;13.606;2023-05-07T04:28:24;12.95;;;9.20;;
68655;SDS011;55638;51.122;13.606;2023-05-07T04:29:57;12.43;;;9.02;;
68655;SDS011;55638;51.122;13.606;2023-05-07T04:31:29;11.00;;;8.18;;
68655;SDS011;55638;51.122;13.606;2023-05-07T04:33:03;12.68;;;8.25;;
68655;SDS011;55638;51.122;13.606;2023-05-07T04:34:35;12.50;;;9.38;;
68655;SDS011;55638;51.122;13.606;2023-05-07T04:36:07;13.27;;;8.68;;
68655;SDS011;55638;51.122;13.606;2023-05-07T04:37:46;9.68;;;7.30;;
68655;SDS011;55638;51.122;13.606;2023-05-07T04:39:18;11.82;;;8.40;;
68655;SDS011;55638;51.122;13.606;2023-05-07T04:40:52;12.10;;;8.85;;
68655;SDS011;55638;51.122;13.606;2023-05-07T04:42:27;11.40;;;8.35;;
68655;SDS011;55638;51.122;13.606;2023-05-07T04:43:59;11.35;;;8.65;;
68655;SDS011;55638;51.122;13.606;2023-05-07T04:45:34;11.63;;;8.65;;
68655;SDS011;55638;51.122;13.606;2023-05-07T04:47:06;13.00;;;8.73;;
68655;SDS011;55638;51.122;13.606;2023-05-07T04:48:38;11.05;;;8.73;;
68655;SDS011;55638;51.122;13.606;2023-05-07T04:50:11;12.45;;;8.90;;
68655;SDS011;55638;51.122;13.606;2023-05-07T04:51:44;11.32;;;8.48;;
68655;SDS011;55638;51.122;13.606;2023-05-07T04:53:19;11.65;;;8.38;;
68655;SDS011;55638;51.122;13.606;2023-05-07T04:54:52;11.05;;;8.38;;
68655;SDS011;55638;51.122;13.606;2023-05-07T04:56:27;11.20;;;8.00;;
68655;SDS011;55638;51.122;13.606;2023-05-07T04:57:59;10.30;;;7.88;;
68655;SDS011;55638;51.122;13.606;2023-05-07T04:59:35;11.07;;;7.78;;
68655;SDS011;55638;51.122;13.606;2023-05-07T05:01:06;10.43;;;8.27;;
68655;SDS011;55638;51.122;13.606;2023-05-07T05:02:39;11.23;;;8.60;;
68655;SDS011;55638;51.122;13.606;2023-05-07T05:04:11;10.52;;;7.93;;
68655;SDS011;55638;51.122;13.606;2023-05-07T05:05:44;10.60;;;7.55;;
68655;SDS011;55638;51.122;13.606;2023-05-07T05:07:16;12.88;;;7.68;;
68655;SDS011;55638;51.122;13.606;2023-05-07T05:08:48;9.57;;;7.65;;
68655;SDS011;55638;51.122;13.606;2023-05-07T05:10:20;8.98;;;7.28;;
68655;SDS011;55638;51.122;13.606;2023-05-07T05:11:55;10.20;;;7.45;;
68655;SDS011;55638;51.122;13.606;2023-05-07T05:13:27;11.95;;;8.38;;
68655;SDS011;55638;51.122;13.606;2023-05-07T05:14:59;11.00;;;7.38;;
68655;SDS011;55638;51.122;13.606;2023-05-07T05:16:31;9.13;;;7.28;;
68655;SDS011;55638;51.122;13.606;2023-05-07T05:18:03;10.57;;;7.80;;
68655;SDS011;55638;51.122;13.606;2023-05-07T05:19:36;9.20;;;7.55;;
68655;SDS011;55638;51.122;13.606;2023-05-07T05:21:08;11.43;;;8.63;;
68655;SDS011;55638;51.122;13.606;2023-05-07T05:22:41;10.98;;;7.80;;
68655;SDS011;55638;51.122;13.606;2023-05-07T05:24:15;8.75;;;7.25;;
68655;SDS011;55638;51.122;13.606;2023-05-07T05:25:47;9.43;;;7.13;;
68655;SDS011;55638;51.122;13.606;2023-05-07T05:27:19;8.85;;;7.07;;
68655;SDS011;55638;51.122;13.606;2023-05-07T05:28:51;8.52;;;6.70;;
68655;SDS011;55638;51.122;13.606;2023-05-07T05:30:25;9.82;;;7.28;;
68655;SDS011;55638;51.122;13.606;2023-05-07T05:31:57;9.77;;;6.88;;
68655;SDS011;55638;51.122;13.606;2023-05-07T05:33:30;8.70;;;6.82;;
68655;SDS011;55638;51.122;13.606;2023-05-07T05:35:07;8.02;;;6.70;;
68655;SDS011;55638;51.122;13.606;2023-05-07T05:36:39;9.75;;;7.45;;
68655;SDS011;55638;51.122;13.606;2023-05-07T05:38:12;19.67;;;11.80;;
68655;SDS011;55638;51.122;13.606;2023-05-07T05:39:45;14.05;;;9.98;;
68655;SDS011;55638;51.122;13.606;2023-05-07T05:41:17;14.93;;;9.77;;
68655;SDS011;55638;51.122;13.606;2023-05-07T05:42:49;13.07;;;8.75;;
68655;SDS011;55638;51.122;13.606;2023-05-07T05:44:21;10.38;;;7.45;;
68655;SDS011;55638;51.122;13.606;2023-05-07T05:45:54;11.40;;;7.45;;
68655;SDS011;55638;51.122;13.606;2023-05-07T05:47:27;9.25;;;7.07;;
68655;SDS011;55638;51.122;13.606;2023-05-07T05:49:00;9.68;;;6.72;;
68655;SDS011;55638;51.122;13.606;2023-05-07T05:50:32;9.07;;;6.70;;
68655;SDS011;55638;51.122;13.606;2023-05-07T05:52:04;9.43;;;7.18;;
68655;SDS011;55638;51.122;13.606;2023-05-07T05:53:36;8.55;;;7.15;;
68655;SDS011;55638;51.122;13.606;2023-05-07T05:55:09;8.00;;;6.65;;
68655;SDS011;55638;51.122;13.606;2023-05-07T05:56:42;8.88;;;6.97;;
68655;SDS011;55638;51.122;13.606;2023-05-07T05:58:14;9.25;;;7.35;;
68655;SDS011;55638;51.122;13.606;2023-05-07T05:59:53;9.73;;;7.43;;
68655;SDS011;55638;51.122;13.606;2023-05-07T06:01:25;9.68;;;7.53;;
68655;SDS011;55638;51.122;13.606;2023-05-07T06:02:59;9.98;;;7.40;;
68655;SDS011;55638;51.122;13.606;2023-05-07T06:04:31;9.13;;;7.10;;
68655;SDS011;55638;51.122;13.606;2023-05-07T06:06:03;9.35;;;6.82;;
68655;SDS011;55638;51.122;13.606;2023-05-07T06:07:36;9.15;;;7.65;;
68655;SDS011;55638;51.122;13.606;2023-05-07T06:09:07;9.00;;;7.05;;
68655;SDS011;55638;51.122;13.606;2023-05-07T06:10:44;9.73;;;7.70;;
68655;SDS011;55638;51.122;13.606;2023-05-07T06:12:16;9.18;;;6.70;;
68655;SDS011;55638;51.122;13.606;2023-05-07T06:13:48;9.15;;;6.63;;
68655;SDS011;55638;51.122;13.606;2023-05-07T06:15:20;8.02;;;6.03;;
68655;SDS011;55638;51.122;13.606;2023-05-07T06:16:52;8.73;;;6.63;;
68655;SDS011;55638;51.122;13.606;2023-05-07T06:18:24;7.43;;;5.95;;
68655;SDS011;55638;51.122;13.606;2023-05-07T06:19:56;7.38;;;5.75;;
68655;SDS011;55638;51.122;13.606;2023-05-07T06:21:28;7.63;;;6.22;;
68655;SDS011;55638;51.122;13.606;2023-05-07T06:23:00;8.13;;;5.72;;
68655;SDS011;55638;51.122;13.606;2023-05-07T06:24:33;6.03;;;5.07;;
68655;SDS011;55638;51.122;13.606;2023-05-07T06:26:05;7.45;;;5.82;;
68655;SDS011;55638;51.122;13.606;2023-05-07T06:27:42;7.63;;;5.80;;
68655;SDS011;55638;51.122;13.606;2023-05-07T06:29:14;8.07;;;5.80;;
68655;SDS011;55638;51.122;13.606;2023-05-07T06:30:46;7.95;;;6.10;;
68655;SDS011;55638;51.122;13.606;2023-05-07T06:32:21;6.35;;;5.60;;
68655;SDS011;55638;51.122;13.606;2023-05-07T06:33:54;7.07;;;5.32;;
68655;SDS011;55638;51.122;13.606;2023-05-07T06:35:30;6.53;;;5.00;;
68655;SDS011;55638;51.122;13.606;2023-05-07T06:37:02;7.15;;;5.10;;
68655;SDS011;55638;51.122;13.606;2023-05-07T06:39:00;5.70;;;4.68;;
68655;SDS011;55638;51.122;13.606;2023-05-07T06:40:31;6.65;;;5.07;;
68655;SDS011;55638;51.122;13.606;2023-05-07T06:42:04;6.15;;;4.85;;
68655;SDS011;55638;51.122;13.606;2023-05-07T06:43:37;5.50;;;4.75;;
68655;SDS011;55638;51.122;13.606;2023-05-07T06:45:34;5.38;;;4.45;;
68655;SDS011;55638;51.122;13.606;2023-05-07T06:47:06;4.97;;;4.05;;
68655;SDS011;55638;51.122;13.606;2023-05-07T06:48:39;5.80;;;4.60;;
68655;SDS011;55638;51.122;13.606;2023-05-07T06:50:11;6.82;;;4.75;;
68655;SDS011;55638;51.122;13.606;2023-05-07T06:51:43;6.90;;;4.85;;
68655;SDS011;55638;51.122;13.606;2023-05-07T06:53:15;5.55;;;4.28;;
68655;SDS011;55638;51.122;13.606;2023-05-07T06:54:47;6.45;;;4.75;;
68655;SDS011;55638;51.122;13.606;2023-05-07T06:56:21;5.30;;;4.32;;
68655;SDS011;55638;51.122;13.606;2023-05-07T06:57:54;4.53;;;3.80;;
68655;SDS011;55638;51.122;13.606;2023-05-07T06:59:27;6.85;;;4.22;;
68655;SDS011;55638;51.122;13.606;2023-05-07T07:00:59;4.53;;;4.07;;
68655;SDS011;55638;51.122;13.606;2023-05-07T07:02:31;4.75;;;3.97;;
68655;SDS011;55638;51.122;13.606;2023-05-07T07:04:03;5.00;;;3.67;;
68655;SDS011;55638;51.122;13.606;2023-05-07T07:05:35;5.38;;;4.35;;
68655;SDS011;55638;51.122;13.606;2023-05-07T07:07:08;6.03;;;4.35;;
68655;SDS011;55638;51.122;13.606;2023-05-07T07:08:40;4.82;;;4.00;;
68655;SDS011;55638;51.122;13.606;2023-05-07T07:10:11;4.20;;;3.80;;
68655;SDS011;55638;51.122;13.606;2023-05-07T07:11:44;5.43;;;4.20;;
68655;SDS011;55638;51.122;13.606;2023-05-07T07:13:15;6.95;;;5.00;;
68655;SDS011;55638;51.122;13.606;2023-05-07T07:14:47;5.63;;;4.78;;
68655;SDS011;55638;51.122;13.606;2023-05-07T07:16:20;5.85;;;5.10;;
68655;SDS011;55638;51.122;13.606;2023-05-07T07:17:54;6.43;;;5.50;;
68655;SDS011;55638;51.122;13.606;2023-05-07T07:19:28;6.70;;;5.13;;
68655;SDS011;55638;51.122;13.606;2023-05-07T07:21:01;5.22;;;4.35;;
68655;SDS011;55638;51.122;13.606;2023-05-07T07:22:32;7.05;;;5.00;;
68655;SDS011;55638;51.122;13.606;2023-05-07T07:24:04;5.28;;;4.43;;
68655;SDS011;55638;51.122;13.606;2023-05-07T07:25:36;6.68;;;4.93;;
68655;SDS011;55638;51.122;13.606;2023-05-07T07:27:09;5.03;;;4.50;;
68655;SDS011;55638;51.122;13.606;2023-05-07T07:28:47;4.95;;;4.43;;
68655;SDS011;55638;51.122;13.606;2023-05-07T07:30:22;5.18;;;4.32;;
68655;SDS011;55638;51.122;13.606;2023-05-07T07:31:54;5.57;;;4.63;;
68655;SDS011;55638;51.122;13.606;2023-05-07T07:33:26;4.18;;;3.65;;
68655;SDS011;55638;51.122;13.606;2023-05-07T07:34:58;5.55;;;4.05;;
68655;SDS011;55638;51.122;13.606;2023-05-07T07:36:31;4.85;;;4.00;;
68655;SDS011;55638;51.122;13.606;2023-05-07T07:38:15;4.90;;;3.67;;
68655;SDS011;55638;51.122;13.606;2023-05-07T07:39:47;4.72;;;3.72;;
68655;SDS011;55638;51.122;13.606;2023-05-07T07:41:19;5.45;;;3.90;;
68655;SDS011;55638;51.122;13.606;2023-05-07T07:42:52;3.65;;;3.28;;
68655;SDS011;55638;51.122;13.606;2023-05-07T07:44:24;3.97;;;3.55;;
68655;SDS011;55638;51.122;13.606;2023-05-07T07:46:01;3.30;;;3.00;;
68655;SDS011;55638;51.122;13.606;2023-05-07T07:47:35;3.03;;;2.78;;
68655;SDS011;55638;51.122;13.606;2023-05-07T07:49:07;3.00;;;2.70;;
68655;SDS011;55638;51.122;13.606;2023-05-07T07:50:39;3.42;;;3.00;;
68655;SDS011;55638;51.122;13.606;2023-05-07T07:52:18;3.20;;;2.90;;
68655;SDS011;55638;51.122;13.606;2023-05-07T07:53:50;3.28;;;2.97;;
68655;SDS011;55638;51.122;13.606;2023-05-07T07:55:22;3.03;;;2.45;;
68655;SDS011;55638;51.122;13.606;2023-05-07T07:56:57;2.95;;;2.63;;
68655;SDS011;55638;51.122;13.606;2023-05-07T07:58:29;2.40;;;2.20;;
68655;SDS011;55638;51.122;13.606;2023-05-07T08:00:01;2.97;;;2.47;;
68655;SDS011;55638;51.122;13.606;2023-05-07T08:01:36;2.83;;;2.50;;
68655;SDS011;55638;51.122;13.606;2023-05-07T08:03:11;2.70;;;2.47;;
68655;SDS011;55638;51.122;13.606;2023-05-07T08:04:47;2.83;;;2.40;;
68655;SDS011;55638;51.122;13.606;2023-05-07T08:06:19;2.47;;;2.28;;
68655;SDS011;55638;51.122;13.606;2023-05-07T08:07:51;2.95;;;2.70;;
68655;SDS011;55638;51.122;13.606;2023-05-07T08:09:29;2.33;;;2.13;;
68655;SDS011;55638;51.122;13.606;2023-05-07T08:11:04;2.60;;;2.40;;
68655;SDS011;55638;51.122;13.606;2023-05-07T08:12:38;2.78;;;2.45;;
68655;SDS011;55638;51.122;13.606;2023-05-07T08:14:11;2.55;;;2.15;;
68655;SDS011;55638;51.122;13.606;2023-05-07T08:15:43;2.35;;;2.15;;
68655;SDS011;55638;51.122;13.606;2023-05-07T08:17:16;2.40;;;2.20;;
68655;SDS011;55638;51.122;13.606;2023-05-07T08:18:49;2.35;;;2.15;;
68655;SDS011;55638;51.122;13.606;2023-05-07T08:20:21;2.70;;;2.50;;
68655;SDS011;55638;51.122;13.606;2023-05-07T08:21:54;3.10;;;2.80;;
68655;SDS011;55638;51.122;13.606;2023-05-07T08:23:28;2.85;;;2.55;;
68655;SDS011;55638;51.122;13.606;2023-05-07T08:25:00;3.20;;;2.70;;
68655;SDS011;55638;51.122;13.606;2023-05-07T08:26:33;3.08;;;2.78;;
68655;SDS011;55638;51.122;13.606;2023-05-07T08:28:04;2.67;;;2.45;;
68655;SDS011;55638;51.122;13.606;2023-05-07T08:29:41;2.70;;;2.47;;
68655;SDS011;55638;51.122;13.606;2023-05-07T08:31:13;2.60;;;2.40;;
68655;SDS011;55638;51.122;13.606;2023-05-07T08:32:48;2.80;;;2.50;;
68655;SDS011;55638;51.122;13.606;2023-05-07T08:34:20;3.00;;;2.60;;
68655;SDS011;55638;51.122;13.606;2023-05-07T08:35:55;3.00;;;2.60;;
68655;SDS011;55638;51.122;13.606;2023-05-07T08:37:27;2.88;;;2.67;;
68655;SDS011;55638;51.122;13.606;2023-05-07T08:38:59;3.58;;;2.95;;
68655;SDS011;55638;51.122;13.606;2023-05-07T08:40:33;2.78;;;2.58;;
68655;SDS011;55638;51.122;13.606;2023-05-07T08:42:12;3.03;;;2.83;;
68655;SDS011;55638;51.122;13.606;2023-05-07T08:43:48;3.60;;;3.30;;
68655;SDS011;55638;51.122;13.606;2023-05-07T08:45:24;3.63;;;3.33;;
68655;SDS011;55638;51.122;13.606;2023-05-07T08:46:58;2.72;;;2.50;;
68655;SDS011;55638;51.122;13.606;2023-05-07T08:48:33;2.65;;;2.30;;
68655;SDS011;55638;51.122;13.606;2023-05-07T08:50:15;3.00;;;2.70;;
68655;SDS011;55638;51.122;13.606;2023-05-07T08:51:47;2.80;;;2.60;;
68655;SDS011;55638;51.122;13.606;2023-05-07T08:53:19;3.00;;;2.70;;
68655;SDS011;55638;51.122;13.606;2023-05-07T08:54:53;3.85;;;2.83;;
68655;SDS011;55638;51.122;13.606;2023-05-07T08:56:26;3.00;;;2.70;;
68655;SDS011;55638;51.122;13.606;2023-05-07T08:57:59;3.25;;;2.72;;
68655;SDS011;55638;51.122;13.606;2023-05-07T08:59:34;2.80;;;2.60;;
68655;SDS011;55638;51.122;13.606;2023-05-07T09:01:07;3.13;;;2.80;;
68655;SDS011;55638;51.122;13.606;2023-05-07T09:02:40;2.63;;;2.42;;
68655;SDS011;55638;51.122;13.606;2023-05-07T09:04:14;3.50;;;2.83;;
68655;SDS011;55638;51.122;13.606;2023-05-07T09:05:46;3.75;;;3.00;;
68655;SDS011;55638;51.122;13.606;2023-05-07T09:07:21;4.72;;;3.70;;
68655;SDS011;55638;51.122;13.606;2023-05-07T09:08:54;6.00;;;3.80;;
68655;SDS011;55638;51.122;13.606;2023-05-07T09:10:29;4.88;;;3.92;;